createdAt,value
2018-08-24T00:03:53.910Z,13.46
2018-08-24T00:09:54.628Z,14.81
2018-08-24T00:15:55.376Z,14.78
2018-08-24T00:19:56.128Z,14.62
2018-08-24T00:25:56.962Z,15.4
2018-08-24T00:29:57.682Z,15.33
2018-08-24T00:35:58.472Z,14.61
2018-08-24T00:41:59.251Z,14.32
2018-08-24T00:46:00.034Z,14.33
2018-08-24T00:52:00.897Z,14.37
2018-08-24T00:56:01.682Z,13.71
2018-08-24T01:02:02.400Z,13.76
2018-08-24T01:08:03.232Z,15.04
2018-08-24T01:12:03.994Z,14.27
2018-08-24T01:18:04.802Z,15.57
2018-08-24T01:22:05.581Z,14.71
2018-08-24T01:24:06.275Z,16.72
2018-08-24T01:28:07.085Z,15.11
2018-08-24T01:34:07.856Z,15.16
2018-08-24T01:38:08.745Z,15.25
2018-08-24T01:44:09.338Z,14.15
2018-08-24T01:48:10.071Z,14.2
2018-08-24T01:50:10.850Z,15.24
2018-08-24T01:54:11.637Z,15.22
2018-08-24T02:00:13.046Z,15.57
2018-08-24T02:04:13.899Z,15.22
2018-08-24T02:10:14.665Z,14.43
2018-08-24T02:14:15.463Z,15.22
2018-08-24T02:16:16.029Z,16.13
2018-08-24T02:20:16.822Z,14.82
2018-08-24T02:26:17.611Z,16.01
2018-08-24T02:30:18.764Z,15.81
2018-08-24T02:36:19.524Z,15.88
2018-08-24T02:40:20.309Z,15.78
2018-08-24T02:42:21.056Z,16.22
2018-08-24T02:46:21.830Z,15.65
2018-08-24T02:52:22.549Z,16.88
2018-08-24T02:56:23.519Z,15.73
2018-08-24T03:02:24.405Z,16.81
2018-08-24T03:06:25.160Z,17.22
2018-08-24T03:08:25.953Z,18.5
2018-08-24T03:12:26.626Z,17.92
2018-08-24T03:18:27.394Z,17.33
2018-08-24T03:22:28.178Z,16.88
2018-08-24T03:28:29.021Z,17.29
2018-08-24T03:32:29.758Z,16.38
2018-08-24T03:34:30.424Z,16.94
2018-08-24T03:38:31.155Z,15.91
2018-08-24T03:44:31.922Z,17.13
2018-08-24T03:48:32.670Z,16.32
2018-08-24T03:54:33.437Z,16.72
2018-08-24T03:58:34.298Z,15.41
2018-08-24T04:00:35.028Z,16.49
2018-08-24T04:04:35.841Z,16.11
2018-08-24T04:10:36.566Z,16.98
2018-08-24T04:14:37.247Z,15.19
2018-08-24T04:20:38.119Z,15.9
2018-08-24T04:24:38.893Z,16.54
2018-08-24T04:26:39.558Z,16.41
2018-08-24T04:30:40.432Z,16.09
2018-08-24T04:36:41.157Z,17.18
2018-08-24T04:40:41.870Z,15.74
2018-08-24T04:46:42.580Z,17.01
2018-08-24T04:50:43.431Z,15.73
2018-08-24T04:52:44.159Z,17.5
2018-08-24T04:56:44.905Z,16.83
2018-08-24T05:02:45.635Z,17.99
2018-08-24T05:06:46.508Z,16.63
2018-08-24T05:12:47.284Z,17.3
2018-08-24T05:18:48.058Z,18.06
2018-08-24T05:22:48.795Z,17.36
2018-08-24T05:28:49.547Z,17.52
2018-08-24T05:32:50.179Z,16.82
2018-08-24T05:38:50.901Z,17.64
2018-08-24T05:44:51.694Z,16.61
2018-08-24T05:48:52.555Z,17.14
2018-08-24T05:54:53.186Z,18.24
2018-08-24T05:58:54.004Z,16.77
2018-08-24T06:04:54.758Z,18.4
2018-08-24T06:10:55.532Z,18.94
2018-08-24T06:14:56.342Z,18.92
2018-08-24T06:20:57.185Z,21.01
2018-08-24T06:24:57.905Z,20.86
2018-08-24T06:30:58.700Z,18.24
2018-08-24T06:36:59.454Z,20.26
2018-08-24T06:41:00.241Z,19.84
2018-08-24T06:47:01.010Z,19.82
2018-08-24T06:51:01.840Z,19.32
2018-08-24T06:57:02.553Z,19.63
2018-08-24T07:03:03.281Z,20.75
2018-08-24T07:07:03.988Z,19.61
2018-08-24T07:13:04.883Z,20.11
2018-08-24T07:17:05.486Z,20.01
2018-08-24T07:23:06.294Z,19.15
2018-08-24T07:29:06.992Z,20.34
2018-08-24T07:33:07.828Z,18.81
2018-08-24T07:39:08.795Z,19.52
2018-08-24T07:43:09.603Z,19.52
2018-08-24T07:45:10.747Z,19.16
2018-08-24T07:49:11.630Z,19.29
2018-08-24T07:55:12.465Z,19.32
2018-08-24T07:59:13.070Z,19.1
2018-08-24T08:05:13.988Z,19.67
2018-08-24T08:09:14.779Z,20.4
2018-08-24T08:11:15.508Z,20.2
2018-08-24T08:15:16.548Z,19.35
2018-08-24T08:21:17.319Z,17.42
2018-08-24T08:25:18.132Z,17.2
2018-08-24T08:31:18.913Z,17.17
2018-08-24T08:35:19.717Z,16.33
2018-08-24T08:37:20.526Z,18.92
2018-08-24T08:41:21.290Z,17.94
2018-08-24T08:47:22.085Z,17.26
2018-08-24T08:51:22.810Z,16.68
2018-08-24T08:57:23.645Z,17.64
2018-08-24T09:01:24.402Z,17.18
2018-08-24T09:03:25.166Z,17.24
2018-08-24T09:07:26.056Z,17.34
2018-08-24T09:13:26.732Z,17.97
2018-08-24T09:17:27.523Z,17.44
2018-08-24T09:23:34.226Z,18.79
2018-08-24T09:27:41.206Z,19.4
2018-08-24T09:33:41.924Z,18.57
2018-08-24T09:43:48.317Z,17.7
2018-08-24T09:43:48.475Z,18.71
2018-08-24T09:49:50.165Z,17.37
2018-08-24T09:53:50.981Z,16.78
2018-08-24T09:59:51.762Z,17
2018-08-24T10:05:52.518Z,16.2
2018-08-24T10:09:53.275Z,15.57
2018-08-24T10:15:54.299Z,16.08
2018-08-24T10:19:55.148Z,16.08
2018-08-24T10:25:55.969Z,15.14
2018-08-24T10:31:56.764Z,15.58
2018-08-24T10:35:57.391Z,14.83
2018-08-24T10:41:58.187Z,14.9
2018-08-24T10:45:59.075Z,15.31
2018-08-24T10:51:59.791Z,13.72
2018-08-24T10:58:00.576Z,15.47
2018-08-24T11:02:01.444Z,15.1
2018-08-24T11:08:02.163Z,16.01
2018-08-24T11:12:02.895Z,15.87
2018-08-24T11:14:03.541Z,15.59
2018-08-24T11:18:04.425Z,15.8
2018-08-24T11:28:18.584Z,15.83
2018-08-24T11:28:18.893Z,16.05
2018-08-24T11:34:19.679Z,14.59
2018-08-24T11:38:20.774Z,14.64
2018-08-24T11:44:23.058Z,15.57
2018-08-24T11:50:26.176Z,16.48
2018-08-24T11:54:27.102Z,16.37
2018-08-24T12:00:30.912Z,15.9
2018-08-24T12:04:31.725Z,15.8
2018-08-24T12:10:32.414Z,14.07
2018-08-24T12:16:33.167Z,14.27
2018-08-24T12:20:34.572Z,13.84
2018-08-24T12:26:35.335Z,13.08
2018-08-24T12:30:37.183Z,13.52
2018-08-24T12:36:38.886Z,13.7
2018-08-24T12:42:41.871Z,13.71
2018-08-24T12:52:46.814Z,13.4
2018-08-24T12:52:46.939Z,13.69
2018-08-24T12:56:48.550Z,14.03
2018-08-24T13:02:49.882Z,13.32
2018-08-24T13:06:52.891Z,13.51
2018-08-24T13:08:53.703Z,12.93
2018-08-24T13:12:54.455Z,12.72
2018-08-24T13:18:55.226Z,13.81
2018-08-24T13:22:56.246Z,12.99
2018-08-24T13:28:57.924Z,12.54
2018-08-24T13:33:01.723Z,12.96
2018-08-24T13:35:02.411Z,11.62
2018-08-24T13:39:03.442Z,12
2018-08-24T13:45:06.074Z,11.73
2018-08-24T13:49:06.890Z,12.88
2018-08-24T13:55:12.071Z,12.74
2018-08-24T13:59:12.882Z,12.62
2018-08-24T14:01:14.168Z,11.69
2018-08-24T14:05:15.005Z,12.62
2018-08-24T14:11:15.812Z,12.13
2018-08-24T14:15:21.672Z,12.73
2018-08-24T14:21:23.438Z,12.5
2018-08-24T14:25:26.651Z,11.89
2018-08-24T14:31:28.122Z,12.01
2018-08-24T14:37:28.997Z,11.96
2018-08-24T14:41:31.324Z,11.47
2018-08-24T14:47:32.121Z,11.83
2018-08-24T14:51:34.374Z,11
2018-08-24T14:57:41.706Z,11.37
2018-08-24T15:03:42.700Z,10.91
2018-08-24T15:07:43.592Z,10.83
2018-08-24T15:13:45.077Z,11.21
2018-08-24T15:17:45.841Z,10.18
2018-08-24T15:23:48.370Z,10.62
2018-08-24T15:29:51.003Z,12.8
2018-08-24T15:33:51.674Z,11.85
2018-08-24T15:39:56.004Z,11.45
2018-08-24T15:43:57.445Z,11.48
2018-08-24T15:49:58.390Z,11.04
2018-08-24T15:55:59.377Z,11.11
2018-08-24T16:00:00.529Z,10.99
2018-08-24T16:06:01.291Z,10.63
2018-08-24T16:10:02.147Z,10.46
2018-08-24T16:16:04.193Z,10.03
2018-08-24T16:22:10.845Z,9.8
2018-08-24T16:26:11.610Z,9.08
2018-08-24T16:32:12.455Z,10.54
2018-08-24T16:36:15.025Z,9.61
2018-08-24T16:42:17.165Z,9.74
2018-08-24T16:46:19.062Z,10.08
2018-08-24T16:48:19.693Z,10.54
2018-08-24T16:52:20.578Z,10.04
2018-08-24T16:58:22.188Z,10.55
2018-08-24T17:02:25.040Z,10.62
2018-08-24T17:08:29.779Z,10.76
2018-08-24T17:12:31.776Z,10.75
2018-08-24T17:14:33.509Z,11.45
2018-08-24T17:18:36.990Z,11.02
2018-08-24T17:24:37.994Z,11.44
2018-08-24T17:28:38.783Z,11.14
2018-08-24T17:34:39.817Z,11.82
2018-08-24T17:38:40.958Z,11.52
2018-08-24T17:40:41.671Z,11.59
2018-08-24T17:44:42.438Z,10.63
2018-08-24T17:50:43.714Z,11.69
2018-08-24T17:54:44.504Z,11
2018-08-24T18:00:46.851Z,13.12
2018-08-24T18:04:47.638Z,12.03
2018-08-24T18:06:48.298Z,13.43
2018-08-24T18:10:49.153Z,12.95
2018-08-24T18:16:49.865Z,13.58
2018-08-24T18:20:50.648Z,13.99
2018-08-24T18:26:51.325Z,14.03
2018-08-24T18:30:53.881Z,13.74
2018-08-24T18:32:54.906Z,14.14
2018-08-24T18:36:57.623Z,14.93
2018-08-24T18:42:58.472Z,14.62
2018-08-24T18:46:59.630Z,13.76
2018-08-24T18:53:00.536Z,16.13
2018-08-24T18:57:03.727Z,15.41
2018-08-24T18:59:04.422Z,15.53
2018-08-24T19:03:05.219Z,14.18
2018-08-24T19:09:06.135Z,14.72
2018-08-24T19:13:06.903Z,14.54
2018-08-24T19:19:07.736Z,16.02
2018-08-24T19:23:09.435Z,15.65
2018-08-24T19:25:11.089Z,16.8
2018-08-24T19:29:11.985Z,16.75
2018-08-24T19:35:16.751Z,16.16
2018-08-24T19:39:17.477Z,16.46
2018-08-24T19:45:21.230Z,16.36
2018-08-24T19:55:30.151Z,15.63
2018-08-24T19:55:30.344Z,16.85
2018-08-24T20:01:35.146Z,15.55
2018-08-24T20:05:40.655Z,16.02
2018-08-24T20:11:42.477Z,15.37
2018-08-24T20:15:47.818Z,17
2018-08-24T20:21:48.743Z,18.2
2018-08-24T20:25:49.595Z,17.85
2018-08-24T20:27:53.410Z,19.02
2018-08-24T20:31:56.708Z,18.28
2018-08-24T20:38:00.310Z,17.69
2018-08-24T20:42:01.287Z,17.92
2018-08-24T20:48:08.232Z,16.31
2018-08-24T20:52:09.289Z,16.86
2018-08-24T20:58:10.193Z,16.37
2018-08-24T21:04:11.979Z,16.32
2018-08-24T21:08:12.818Z,15.33
2018-08-24T21:14:13.649Z,16.75
2018-08-24T21:18:14.477Z,16.42
2018-08-24T21:24:15.417Z,16.89
2018-08-24T21:30:16.526Z,17.01
2018-08-24T21:34:17.335Z,16.74
2018-08-24T21:40:26.326Z,17.55
2018-08-24T21:44:29.065Z,17.48
2018-08-24T21:50:30.291Z,18.18
2018-08-24T21:54:30.954Z,17.8
2018-08-24T21:56:31.904Z,18.56
2018-08-24T22:00:33.095Z,17.34
2018-08-24T22:06:33.834Z,17.36
2018-08-24T22:10:34.633Z,17.47
2018-08-24T22:16:35.536Z,17.42
2018-08-24T22:22:36.365Z,16.86
2018-08-24T22:26:37.147Z,17.18
2018-08-24T22:32:37.942Z,17.41
2018-08-24T22:36:38.771Z,17.13
2018-08-24T22:42:39.709Z,18.18
2018-08-24T22:48:40.475Z,18.87
2018-08-24T22:52:41.238Z,18.64
2018-08-24T22:58:41.958Z,18.5
2018-08-24T23:02:42.674Z,17.48
2018-08-24T23:08:43.461Z,17.15
2018-08-24T23:14:44.166Z,17.96
2018-08-24T23:18:44.985Z,17.47
2018-08-24T23:24:45.675Z,19.24
2018-08-24T23:28:46.397Z,17.95
2018-08-24T23:34:47.143Z,18.35
2018-08-24T23:44:53.528Z,18.78
2018-08-24T23:44:53.643Z,17.95
2018-08-24T23:50:54.332Z,17.6
2018-08-24T23:54:54.981Z,17.48
